Time;durP1;ratioP1;P1;durP2;ratioP2;P2;SDS_P1;SDS_P2;PMS_P1;PMS_P2;Temp;Humidity;BMP_temperature;BMP_pressure;BME280_temperature;BME280_humidity;BME280_pressure;Samples;Min_cycle;Max_cycle;Signal;HPM_P1;HPM_P2
2024/03/14 00:01:18;;;;;;;;;;;;;;;18.02;63.94;100531.66;7389170;19;1431;-39
2024/03/14 00:03:47;;;;;;;;;;;;;;;17.98;63.91;100529.41;7389448;19;1592;-38
2024/03/14 00:06:18;;;;;;;;;;;;;;;18.09;63.77;100534.66;7389049;19;1493;-38
2024/03/14 00:08:49;;;;;;;;;;;;;;;18.05;63.70;100543.94;7387189;19;1853;-38
2024/03/14 00:11:17;;;;;;;;;;;;;;;17.81;63.88;100482.72;7387674;19;1637;-39
2024/03/14 00:13:46;;;;;;;;;;;;;;;18.03;63.68;100532.53;7389523;19;1116;-38
2024/03/14 00:16:16;;;;;;;;;;;;;;;18.06;63.64;100502.81;7389378;19;1858;-38
2024/03/14 00:18:44;;;;;;;;;;;;;;;18.01;63.71;100515.75;7387945;19;1630;-38
2024/03/14 00:21:14;;;;;;;;;;;;;;;18.01;63.52;100502.38;7385600;19;1748;-38
2024/03/14 00:23:44;;;;;;;;;;;;;;;17.94;63.81;100510.09;7386508;19;2375;-39
2024/03/14 00:26:17;;;;;;;;;;;;;;;18.01;63.68;100505.91;7387910;19;1059;-38
2024/03/14 00:28:46;;;;;;;;;;;;;;;18.02;63.58;100493.38;7387375;19;1838;-38
2024/03/14 00:31:15;;;;;;;;;;;;;;;17.79;63.41;100466.78;7388385;19;1850;-38
2024/03/14 00:33:43;;;;;;;;;;;;;;;18.02;63.51;100509.41;7387279;19;1536;-38
2024/03/14 00:36:14;;;;;;;;;;;;;;;18.01;63.41;100497.88;7388476;19;1496;-38
2024/03/14 00:38:43;;;;;;;;;;;;;;;18.00;63.32;100506.03;7388227;19;1627;-38
2024/03/14 00:41:19;;;;;;;;;;;;;;;17.92;63.63;100500.50;7387644;19;1541;-38
2024/03/14 00:43:48;;;;;;;;;;;;;;;17.85;63.98;100487.69;7387801;19;1109;-38
2024/03/14 00:46:17;;;;;;;;;;;;;;;17.78;63.57;100454.38;7389382;19;1211;-38
2024/03/14 00:48:45;;;;;;;;;;;;;;;18.39;62.82;100469.50;7386702;19;1868;-39
2024/03/14 00:51:14;;;;;;;;;;;;;;;18.54;62.34;100491.34;7387937;19;1389;-38
2024/03/14 00:53:43;;;;;;;;;;;;;;;18.33;62.57;100486.13;7388415;19;1136;-38
2024/03/14 00:56:12;;;;;;;;;;;;;;;18.02;62.75;100445.19;7387541;19;1432;-39
2024/03/14 00:58:43;;;;;;;;;;;;;;;18.19;63.14;100494.56;7387115;19;1133;-39
2024/03/14 01:01:12;;;;;;;;;;;;;;;18.09;63.30;100506.06;7386995;19;1500;-39
2024/03/14 01:03:40;;;;;;;;;;;;;;;18.08;63.10;100479.44;7385743;19;1728;-38
2024/03/14 01:06:11;;;;;;;;;;;;;;;18.11;63.28;100499.75;7386664;19;1163;-38
2024/03/14 01:08:40;;;;;;;;;;;;;;;18.03;63.47;100479.03;7385874;19;1859;-39
2024/03/14 01:11:09;;;;;;;;;;;;;;;18.04;63.61;100491.41;7386716;19;1440;-38
2024/03/14 01:13:37;;;;;;;;;;;;;;;18.01;64.02;100508.56;7385644;19;1355;-38
2024/03/14 01:16:08;;;;;;;;;;;;;;;17.98;64.29;100481.25;7386442;19;1384;-38
2024/03/14 01:18:39;;;;;;;;;;;;;;;18.01;64.28;100491.69;7386407;19;1525;-39
2024/03/14 01:21:08;;;;;;;;;;;;;;;18.02;64.40;100509.41;7389650;19;1578;-38
2024/03/14 01:23:37;;;;;;;;;;;;;;;18.01;64.59;100505.91;7393280;19;1211;-38
2024/03/14 01:26:06;;;;;;;;;;;;;;;18.05;64.42;100482.41;7393291;19;1830;-38
2024/03/14 01:28:35;;;;;;;;;;;;;;;18.07;64.46;100507.19;7393389;19;1873;-38
2024/03/14 01:31:05;;;;;;;;;;;;;;;18.01;64.83;100502.38;7393424;19;1453;-39
2024/03/14 01:33:36;;;;;;;;;;;;;;;18.03;64.64;100489.72;7392810;19;1222;-38
2024/03/14 01:36:05;;;;;;;;;;;;;;;18.04;64.62;100504.78;7393054;19;1619;-38
2024/03/14 01:38:34;;;;;;;;;;;;;;;18.06;64.51;100501.00;7392899;19;1607;-38
2024/03/14 01:41:03;;;;;;;;;;;;;;;17.96;64.88;100485.88;7393468;19;1535;-39
2024/03/14 01:43:31;;;;;;;;;;;;;;;18.04;64.79;100504.78;7392634;19;1195;-38
2024/03/14 01:46:00;;;;;;;;;;;;;;;18.09;64.48;100505.22;7393934;19;1134;-42
2024/03/14 01:48:28;;;;;;;;;;;;;;;18.06;64.38;100501.00;7392482;19;1860;-39
2024/03/14 01:50:59;;;;;;;;;;;;;;;18.01;64.48;100521.13;7392580;19;1500;-38
2024/03/14 01:53:28;;;;;;;;;;;;;;;18.00;64.62;100504.19;7393468;19;1225;-38
2024/03/14 01:55:57;;;;;;;;;;;;;;;17.93;64.69;100497.72;7393515;19;1603;-39
2024/03/14 01:58:26;;;;;;;;;;;;;;;17.98;64.80;100502.66;7393595;19;1630;-38
2024/03/14 02:00:55;;;;;;;;;;;;;;;17.91;65.04;100497.00;7394008;19;1903;-38
2024/03/14 02:03:24;;;;;;;;;;;;;;;17.96;64.78;100517.97;7392020;19;1558;-39
2024/03/14 02:05:57;;;;;;;;;;;;;;;18.57;63.30;100503.66;7392276;19;1549;-39
2024/03/14 02:08:29;;;;;;;;;;;;;;;19.13;61.89;100505.66;7393000;19;1484;-39
2024/03/14 02:10:57;;;;;;;;;;;;;;;19.56;60.83;100500.78;7392462;19;1638;-38
2024/03/14 02:13:26;;;;;;;;;;;;;;;19.82;60.18;100506.38;7392984;19;1101;-38
2024/03/14 02:15:55;;;;;;;;;;;;;;;19.96;59.61;100505.88;7392403;19;1527;-39
2024/03/14 02:18:23;;;;;;;;;;;;;;;19.68;60.42;100502.28;7391871;19;1532;-39
2024/03/14 02:20:52;;;;;;;;;;;;;;;19.73;60.30;100502.72;7391709;19;1527;-39
2024/03/14 02:23:23;;;;;;;;;;;;;;;19.85;60.01;100506.91;7392713;19;1069;-38
2024/03/14 02:25:51;;;;;;;;;;;;;;;19.90;59.89;100519.91;7389050;19;1408;-39
2024/03/14 02:28:21;;;;;;;;;;;;;;;19.91;59.67;100507.31;7390843;19;1817;-39
2024/03/14 02:30:50;;;;;;;;;;;;;;;19.95;59.70;100531.03;7389042;19;1887;-39
2024/03/14 02:33:18;;;;;;;;;;;;;;;19.93;59.76;100502.66;7388642;19;1719;-39
2024/03/14 02:35:47;;;;;;;;;;;;;;;20.01;59.68;100513.47;7391855;19;1638;-39
2024/03/14 02:38:15;;;;;;;;;;;;;;;20.01;59.71;100510.78;7391996;19;1490;-38
2024/03/14 02:40:46;;;;;;;;;;;;;;;20.04;59.57;100505.97;7388662;19;2506;-39
2024/03/14 02:43:16;;;;;;;;;;;;;;;19.98;59.64;100506.56;7391268;19;1458;-39
2024/03/14 02:45:44;;;;;;;;;;;;;;;20.07;59.54;100504.84;7389787;19;1144;-38
2024/03/14 02:48:13;;;;;;;;;;;;;;;20.16;59.41;100503.94;7390655;19;1364;-38
2024/03/14 02:50:41;;;;;;;;;;;;;;;20.18;59.21;100501.97;7387559;19;2359;-38
2024/03/14 02:53:13;;;;;;;;;;;;;;;20.13;59.55;100506.06;7390648;19;1223;-43
2024/03/14 02:55:44;;;;;;;;;;;;;;;20.14;59.21;100500.56;7390108;19;1607;-43
2024/03/14 02:58:15;;;;;;;;;;;;;;;20.15;59.29;100504.94;7388340;19;2571;-38
2024/03/14 03:00:43;;;;;;;;;;;;;;;20.21;59.08;100498.13;7390811;19;1655;-39
2024/03/14 03:03:12;;;;;;;;;;;;;;;20.23;59.07;100507.72;7389843;19;1597;-39
2024/03/14 03:05:40;;;;;;;;;;;;;;;20.30;59.08;100504.44;7390004;19;1218;-39
2024/03/14 03:08:09;;;;;;;;;;;;;;;20.27;59.18;100501.06;7390582;19;1571;-39
2024/03/14 03:10:37;;;;;;;;;;;;;;;20.30;58.99;100502.59;7389111;19;1880;-38
2024/03/14 03:13:06;;;;;;;;;;;;;;;20.34;58.82;100516.56;7390501;19;1430;-38
2024/03/14 03:15:38;;;;;;;;;;;;;;;20.24;59.17;100505.88;7392065;19;1093;-39
2024/03/14 03:18:07;;;;;;;;;;;;;;;20.25;59.22;100494.13;7390714;19;1482;-39
2024/03/14 03:20:38;;;;;;;;;;;;;;;20.35;58.87;100507.50;7389851;19;1453;-38
2024/03/14 03:23:08;;;;;;;;;;;;;;;20.34;59.07;100500.47;7390908;19;1359;-38
2024/03/14 03:25:37;;;;;;;;;;;;;;;20.27;59.10;100498.38;7390091;19;1545;-39
2024/03/14 03:28:03;;;;;;;;;;;;;;;20.31;59.02;100506.97;7389255;19;1530;-39
2024/03/14 03:30:32;;;;;;;;;;;;;;;20.36;58.99;100493.09;7389071;19;1866;-38
2024/03/14 03:33:01;;;;;;;;;;;;;;;20.31;59.07;100509.66;7389125;19;1624;-38
2024/03/14 03:35:29;;;;;;;;;;;;;;;20.35;59.29;100502.13;7389999;19;1595;-38
2024/03/14 03:37:56;;;;;;;;;;;;;;;20.32;59.08;100495.25;7389715;19;1573;-39
2024/03/14 03:40:30;;;;;;;;;;;;;;;20.36;59.13;100514.59;7389998;19;1532;-38
2024/03/14 03:42:55;;;;;;;;;;;;;;;20.42;58.83;100505.91;7389133;19;1106;-39
2024/03/14 03:45:24;;;;;;;;;;;;;;;20.41;59.01;100514.97;7386551;19;1533;-38
2024/03/14 03:47:50;;;;;;;;;;;;;;;20.39;58.99;100516.94;7388554;19;1147;-39
2024/03/14 03:50:21;;;;;;;;;;;;;;;20.27;59.02;100489.47;7389275;19;1865;-38
2024/03/14 03:52:47;;;;;;;;;;;;;;;20.40;58.80;100515.97;7390204;19;1012;-38
2024/03/14 03:55:17;;;;;;;;;;;;;;;20.50;58.76;100530.19;7388918;19;1550;-38
2024/03/14 03:57:46;;;;;;;;;;;;;;;20.50;58.66;100527.50;7388394;19;1478;-38
2024/03/14 04:02:57;;;;;;;;;;;;;;;19.71;60.48;100526.16;7388012;19;2358;-39
2024/03/14 04:05:25;;;;;;;;;;;;;;;19.44;61.20;100519.72;7388373;19;1554;-38
2024/03/14 04:07:55;;;;;;;;;;;;;;;19.24;61.59;100540.34;7388914;19;1624;-38
2024/03/14 04:10:23;;;;;;;;;;;;;;;19.15;61.66;100530.47;7387459;19;1866;-39
2024/03/14 04:12:53;;;;;;;;;;;;;;;19.02;61.89;100528.09;7388439;19;1132;-39
2024/03/14 04:15:22;;;;;;;;;;;;;;;18.89;62.02;100532.88;7388346;19;1503;-39
2024/03/14 04:17:51;;;;;;;;;;;;;;;18.83;62.37;100536.13;7388699;19;1405;-38
2024/03/14 04:20:20;;;;;;;;;;;;;;;18.78;62.28;100543.69;7389617;19;1069;-38
2024/03/14 04:22:53;;;;;;;;;;;;;;;18.74;62.57;100542.28;7388480;19;1859;-38
2024/03/14 04:25:22;;;;;;;;;;;;;;;18.85;62.67;100553.75;7385375;19;1972;-38
2024/03/14 04:27:51;;;;;;;;;;;;;;;18.95;62.68;100536.84;7387590;19;1512;-38
2024/03/14 04:30:21;;;;;;;;;;;;;;;19.01;62.46;100544.31;7387141;19;1865;-38
2024/03/14 04:32:49;;;;;;;;;;;;;;;18.94;62.77;100545.84;7388754;19;1554;-38
2024/03/14 04:35:20;;;;;;;;;;;;;;;18.86;62.57;100544.72;7385161;19;1489;-38
2024/03/14 04:37:52;;;;;;;;;;;;;;;18.81;62.74;100543.47;7387848;19;1436;-39
2024/03/14 04:40:21;;;;;;;;;;;;;;;18.65;62.88;100560.03;7387939;19;1424;-39
2024/03/14 04:42:50;;;;;;;;;;;;;;;18.77;62.80;100544.69;7387103;19;1361;-38
2024/03/14 04:45:21;;;;;;;;;;;;;;;18.87;62.72;100567.00;7387566;19;1410;-39
2024/03/14 04:47:49;;;;;;;;;;;;;;;19.00;62.47;100547.97;7387929;19;1573;-39
2024/03/14 04:50:18;;;;;;;;;;;;;;;18.96;62.29;100551.91;7386682;19;1849;-39
2024/03/14 04:52:48;;;;;;;;;;;;;;;18.88;62.69;100566.03;7388106;19;1906;-39
2024/03/14 04:55:20;;;;;;;;;;;;;;;18.80;62.73;100569.41;7387422;19;1587;-39
2024/03/14 04:57:49;;;;;;;;;;;;;;;18.69;62.79;100567.66;7395551;19;1523;-38
2024/03/14 05:00:25;;;;;;;;;;;;;;;18.57;63.09;100567.91;7394346;19;1137;-38
2024/03/14 05:02:55;;;;;;;;;;;;;;;18.73;62.81;100576.25;7395159;19;1555;-39
2024/03/14 05:05:23;;;;;;;;;;;;;;;18.82;62.65;100582.63;7393521;19;1477;-38
2024/03/14 05:07:53;;;;;;;;;;;;;;;18.98;62.31;100569.56;7392244;19;1364;-39
2024/03/14 05:10:24;;;;;;;;;;;;;;;19.13;62.03;100588.75;7392230;19;1842;-38
2024/03/14 05:12:52;;;;;;;;;;;;;;;19.30;61.44;100587.19;7394845;19;1165;-39
2024/03/14 05:15:21;;;;;;;;;;;;;;;19.35;61.49;100590.28;7392476;19;1146;-39
2024/03/14 05:17:50;;;;;;;;;;;;;;;19.35;61.36;100579.56;7391510;19;1472;-38
2024/03/14 05:20:18;;;;;;;;;;;;;;;19.42;61.27;100586.06;7392626;19;1413;-39
2024/03/14 05:22:48;;;;;;;;;;;;;;;19.49;61.22;100591.69;7394520;19;1551;-38
2024/03/14 05:25:17;;;;;;;;;;;;;;;19.46;61.21;100590.16;7392441;19;1508;-38
2024/03/14 05:27:49;;;;;;;;;;;;;;;19.48;60.96;100590.00;7391621;19;1527;-50
2024/03/14 05:30:18;;;;;;;;;;;;;;;19.53;60.79;100602.97;7392728;19;1881;-38
2024/03/14 05:32:47;;;;;;;;;;;;;;;19.53;60.85;100602.97;7393199;19;1453;-39
2024/03/14 05:35:16;;;;;;;;;;;;;;;19.45;61.12;100601.84;7392939;19;1381;-50
2024/03/14 05:37:44;;;;;;;;;;;;;;;19.54;61.19;100605.53;7393475;19;1534;-40
2024/03/14 05:40:13;;;;;;;;;;;;;;;19.53;61.04;100600.31;7390210;19;1486;-39
2024/03/14 05:42:42;;;;;;;;;;;;;;;19.52;61.46;100614.69;7392228;19;1314;-39
2024/03/14 05:45:13;;;;;;;;;;;;;;;19.69;61.13;100608.59;7390895;19;1223;-39
2024/03/14 05:47:42;;;;;;;;;;;;;;;19.85;60.60;100605.34;7391866;19;1207;-39
2024/03/14 05:50:11;;;;;;;;;;;;;;;19.90;60.36;100611.13;7388997;19;1872;-39
2024/03/14 05:52:39;;;;;;;;;;;;;;;19.81;60.53;100622.72;7389061;19;1465;-39
2024/03/14 05:55:09;;;;;;;;;;;;;;;19.76;60.83;100620.50;7392925;19;1480;-39
2024/03/14 05:57:38;;;;;;;;;;;;;;;19.79;60.84;100624.72;7392388;19;1495;-39
2024/03/14 06:00:09;;;;;;;;;;;;;;;19.82;60.83;100625.28;7392461;19;1187;-39
2024/03/14 06:02:40;;;;;;;;;;;;;;;19.94;60.75;100634.00;7392311;19;1530;-39
2024/03/14 06:05:09;;;;;;;;;;;;;;;20.04;60.47;100625.94;7391376;19;1409;-39
2024/03/14 06:07:38;;;;;;;;;;;;;;;20.03;60.27;100633.16;7389339;19;1059;-39
2024/03/14 06:10:07;;;;;;;;;;;;;;;20.11;60.31;100626.19;7392127;19;1863;-39
2024/03/14 06:12:37;;;;;;;;;;;;;;;20.04;60.36;100626.78;7390684;19;1549;-39
2024/03/14 06:15:07;;;;;;;;;;;;;;;20.04;60.32;100632.16;7387765;19;1619;-39
2024/03/14 06:17:36;;;;;;;;;;;;;;;20.08;60.93;100640.75;7387082;19;1590;-39
2024/03/14 06:20:09;;;;;;;;;;;;;;;20.01;60.74;100631.59;7386996;19;1097;-39
2024/03/14 06:22:39;;;;;;;;;;;;;;;19.99;61.17;100663.09;7389484;19;1488;-39
2024/03/14 06:25:10;;;;;;;;;;;;;;;19.91;61.38;100665.66;7392271;19;1504;-39
2024/03/14 06:27:39;;;;;;;;;;;;;;;19.97;61.27;100662.38;7390984;19;1547;-39
2024/03/14 06:30:09;;;;;;;;;;;;;;;19.93;60.89;100664.50;7391160;19;1846;-39
2024/03/14 06:32:37;;;;;;;;;;;;;;;19.93;61.38;100682.47;7391381;19;1522;-39
2024/03/14 06:35:09;;;;;;;;;;;;;;;19.90;61.21;100674.72;7390862;19;1657;-39
2024/03/14 06:37:38;;;;;;;;;;;;;;;19.94;61.06;100676.94;7390088;19;1436;-39
2024/03/14 06:40:08;;;;;;;;;;;;;;;19.98;61.05;100674.84;7390573;19;1436;-39
2024/03/14 06:42:37;;;;;;;;;;;;;;;19.86;60.92;100690.25;7387672;19;1488;-39
2024/03/14 06:45:07;;;;;;;;;;;;;;;19.74;60.75;100691.41;7390996;19;1538;-39
2024/03/14 06:47:36;;;;;;;;;;;;;;;19.69;60.91;100689.09;7391109;19;1276;-39
2024/03/14 06:50:05;;;;;;;;;;;;;;;19.70;60.75;100709.56;7390384;19;1838;-39
2024/03/14 06:52:37;;;;;;;;;;;;;;;19.70;60.92;100725.66;7390695;19;1597;-39
2024/03/14 06:55:09;;;;;;;;;;;;;;;19.77;60.54;100717.91;7391103;19;1507;-42
2024/03/14 06:57:39;;;;;;;;;;;;;;;19.71;60.66;100724.69;7390850;19;1465;-39
2024/03/14 07:00:12;;;;;;;;;;;;;;;19.68;60.72;100733.84;7390450;19;1456;-39
2024/03/14 07:02:41;;;;;;;;;;;;;;;19.69;60.77;100721.28;7390125;19;1391;-39
2024/03/14 07:05:14;;;;;;;;;;;;;;;19.74;60.42;100739.69;7388920;19;1294;-39
2024/03/14 07:07:47;;;;;;;;;;;;;;;19.70;60.64;100733.72;7390354;19;1251;-39
2024/03/14 07:10:16;;;;;;;;;;;;;;;19.73;60.70;100743.34;7390771;19;1845;-39
2024/03/14 07:12:46;;;;;;;;;;;;;;;19.75;60.72;100736.84;7390333;19;1781;-39
2024/03/14 07:15:14;;;;;;;;;;;;;;;19.80;60.59;100737.28;7388819;19;1633;-39
2024/03/14 07:17:43;;;;;;;;;;;;;;;19.84;60.38;100745.91;7388570;19;1279;-39
2024/03/14 07:20:16;;;;;;;;;;;;;;;19.79;60.42;100748.97;7389291;19;1455;-39
2024/03/14 07:22:48;;;;;;;;;;;;;;;19.81;60.56;100773.84;7390185;19;1512;-39
2024/03/14 07:25:17;;;;;;;;;;;;;;;19.77;60.62;100764.38;7389687;19;1380;-39
2024/03/14 07:27:46;;;;;;;;;;;;;;;19.92;60.36;100797.03;7387922;19;1484;-39
2024/03/14 07:30:16;;;;;;;;;;;;;;;19.84;60.64;100762.84;7389554;19;1847;-39
2024/03/14 07:32:45;;;;;;;;;;;;;;;19.90;60.65;100768.63;7389528;19;1613;-39
2024/03/14 07:35:13;;;;;;;;;;;;;;;19.81;60.61;100779.19;7389751;19;1581;-39
2024/03/14 07:37:44;;;;;;;;;;;;;;;19.99;60.27;100767.78;7389642;19;1417;-39
2024/03/14 07:40:16;;;;;;;;;;;;;;;19.97;60.18;100772.44;7389354;19;1163;-39
2024/03/14 07:42:46;;;;;;;;;;;;;;;19.88;60.53;100766.09;7389759;19;1607;-39
2024/03/14 07:45:17;;;;;;;;;;;;;;;19.88;60.49;100770.63;7389869;19;1435;-39
2024/03/14 07:47:48;;;;;;;;;;;;;;;19.92;60.66;100782.75;7389708;19;1172;-39
2024/03/14 07:50:17;;;;;;;;;;;;;;;19.93;60.34;100792.50;7390380;19;1018;-39
2024/03/14 07:52:46;;;;;;;;;;;;;;;20.03;60.16;100756.63;7387731;19;1871;-40
2024/03/14 07:55:17;;;;;;;;;;;;;;;19.94;60.52;100780.78;7387547;19;1512;-39
2024/03/14 07:57:46;;;;;;;;;;;;;;;19.94;60.39;100772.72;7388375;19;1464;-39
2024/03/14 08:00:15;;;;;;;;;;;;;;;19.92;60.37;100775.56;7389279;19;1529;-39
2024/03/14 08:02:54;;;;;;;;;;;;;;;19.98;60.47;100776.81;7388711;19;1409;-39
2024/03/14 08:05:23;;;;;;;;;;;;;;;20.01;60.18;100792.63;7386037;19;1362;-39
2024/03/14 08:07:52;;;;;;;;;;;;;;;19.87;59.23;100785.84;7386862;19;1455;-39
2024/03/14 08:10:23;;;;;;;;;;;;;;;19.88;58.80;100778.66;7389766;19;1093;-39
2024/03/14 08:12:51;;;;;;;;;;;;;;;19.88;58.72;100800.13;7384867;19;1858;-39
2024/03/14 08:15:30;;;;;;;;;;;;;;;19.87;58.72;100793.91;7387906;19;1526;-39
2024/03/14 08:17:59;;;;;;;;;;;;;;;19.82;58.97;100791.66;7388678;19;1545;-39
2024/03/14 08:20:28;;;;;;;;;;;;;;;19.85;59.85;100785.97;7385657;19;1392;-39
2024/03/14 08:22:57;;;;;;;;;;;;;;;19.90;59.83;100788.25;7388173;19;1151;-39
2024/03/14 08:25:28;;;;;;;;;;;;;;;19.88;60.08;100797.44;7386326;19;1621;-39
2024/03/14 08:27:57;;;;;;;;;;;;;;;19.85;60.48;100802.09;7387604;19;1398;-39
2024/03/14 08:30:27;;;;;;;;;;;;;;;19.95;60.71;100798.56;7385409;19;1435;-39
2024/03/14 08:32:57;;;;;;;;;;;;;;;19.94;60.88;100795.03;7385231;19;1852;-39
2024/03/14 08:35:26;;;;;;;;;;;;;;;19.94;61.08;100810.31;7386383;19;1199;-39
2024/03/14 08:37:55;;;;;;;;;;;;;;;19.93;61.45;100803.22;7387219;19;1409;-40
2024/03/14 08:40:23;;;;;;;;;;;;;;;19.92;61.51;100806.91;7387180;19;1437;-39
2024/03/14 08:42:55;;;;;;;;;;;;;;;19.98;61.48;100800.97;7388119;19;1651;-39
2024/03/14 08:45:24;;;;;;;;;;;;;;;19.97;61.65;100834.16;7388384;19;1077;-39
2024/03/14 08:47:52;;;;;;;;;;;;;;;19.91;61.86;100827.50;7386324;19;1499;-39
2024/03/14 08:50:22;;;;;;;;;;;;;;;19.95;61.76;100814.66;7387740;19;1496;-39
2024/03/14 08:52:51;;;;;;;;;;;;;;;19.95;62.03;100822.72;7386817;19;1854;-39
2024/03/14 08:55:32;;;;;;;;;;;;;;;19.97;62.15;100812.69;7369059;19;1465;-39
2024/03/14 08:58:07;;;;;;;;;;;;;;;19.98;62.12;100825.16;7384348;19;1856;-39
2024/03/14 09:00:37;;;;;;;;;;;;;;;19.93;62.07;100840.81;7384039;19;1571;-39
2024/03/14 09:03:05;;;;;;;;;;;;;;;19.96;61.99;100829.81;7380966;19;1350;-39
2024/03/14 09:05:34;;;;;;;;;;;;;;;19.93;62.02;100822.03;7381728;19;1832;-39
2024/03/14 09:08:03;;;;;;;;;;;;;;;19.97;61.91;100821.59;7383077;19;1593;-39
2024/03/14 09:10:33;;;;;;;;;;;;;;;19.95;61.82;100820.03;7383491;19;1401;-40
2024/03/14 09:13:06;;;;;;;;;;;;;;;19.98;61.52;100817.09;7383024;19;1858;-40
2024/03/14 09:15:35;;;;;;;;;;;;;;;20.08;61.72;100826.00;7386404;19;1192;-39
2024/03/14 09:18:06;;;;;;;;;;;;;;;20.03;61.60;100821.06;7386227;19;1392;-39
2024/03/14 09:20:34;;;;;;;;;;;;;;;20.05;61.68;100829.81;7384937;19;1521;-39
2024/03/14 09:23:04;;;;;;;;;;;;;;;20.04;61.53;100824.56;7387333;19;1262;-39
2024/03/14 09:25:33;;;;;;;;;;;;;;;19.99;61.78;100813.41;7387331;19;1562;-40
2024/03/14 09:28:08;;;;;;;;;;;;;;;19.98;61.54;100814.41;7385519;19;1409;-40
2024/03/14 09:30:37;;;;;;;;;;;;;;;19.96;61.60;100821.75;7386350;19;1577;-39
2024/03/14 09:33:06;;;;;;;;;;;;;;;19.91;61.75;100821.31;7384066;19;1940;-39
2024/03/14 09:35:41;;;;;;;;;;;;;;;20.04;61.73;100820.03;7385464;19;1251;-39
2024/03/14 09:38:11;;;;;;;;;;;;;;;20.04;61.83;100824.56;7385954;19;1552;-39
2024/03/14 09:40:41;;;;;;;;;;;;;;;20.19;61.43;100830.34;7383579;19;1459;-39
2024/03/14 09:43:14;;;;;;;;;;;;;;;20.22;61.52;100817.50;7389229;19;1275;-39
2024/03/14 09:45:42;;;;;;;;;;;;;;;20.24;61.97;100836.16;7392515;19;1195;-39
2024/03/14 09:48:11;;;;;;;;;;;;;;;20.19;62.00;100843.78;7391724;19;1382;-39
2024/03/14 09:50:41;;;;;;;;;;;;;;;20.13;62.05;100837.13;7392293;19;1435;-39
2024/03/14 09:53:16;;;;;;;;;;;;;;;20.15;62.16;100845.91;7389987;19;1866;-39
2024/03/14 09:55:46;;;;;;;;;;;;;;;20.18;62.41;100834.03;7392027;19;1548;-39
2024/03/14 09:58:19;;;;;;;;;;;;;;;20.19;62.11;100847.34;7392218;19;1222;-39
2024/03/14 10:00:45;;;;;;;;;;;;;;;20.32;62.07;100843.50;7391637;19;1533;-39
2024/03/14 10:03:15;;;;;;;;;;;;;;;20.24;61.23;100853.13;7387652;19;1380;-39
2024/03/14 10:05:43;;;;;;;;;;;;;;;20.12;61.53;100843.50;7388332;19;1144;-39
2024/03/14 10:08:16;;;;;;;;;;;;;;;20.15;61.72;100848.56;7388297;19;1517;-39
2024/03/14 10:10:44;;;;;;;;;;;;;;;20.12;61.99;100846.19;7392574;19;1607;-39
2024/03/14 10:13:13;;;;;;;;;;;;;;;20.14;61.95;100852.25;7390128;19;1844;-39
2024/03/14 10:15:46;;;;;;;;;;;;;;;20.15;61.95;100856.63;7389024;19;1470;-39
2024/03/14 10:18:14;;;;;;;;;;;;;;;20.09;61.98;100859.88;7388495;19;1593;-39
2024/03/14 10:20:43;;;;;;;;;;;;;;;20.16;61.87;100863.72;7387080;19;1172;-39
2024/03/14 10:23:12;;;;;;;;;;;;;;;20.15;61.95;100862.00;7388388;19;1810;-39
2024/03/14 10:25:41;;;;;;;;;;;;;;;20.22;61.92;100856.94;7387848;19;1501;-39
2024/03/14 10:28:14;;;;;;;;;;;;;;;20.23;61.81;100856.81;7387721;19;1563;-39
2024/03/14 10:30:52;;;;;;;;;;;;;;;20.23;61.89;100858.63;7389532;19;1611;-39
2024/03/14 10:33:21;;;;;;;;;;;;;;;20.24;61.88;100858.47;7390470;19;1867;-39
2024/03/14 10:35:55;;;;;;;;;;;;;;;20.22;61.81;100868.53;7392636;19;1624;-39
2024/03/14 10:38:25;;;;;;;;;;;;;;;20.26;61.88;100859.19;7392687;19;1555;-39
2024/03/14 10:40:55;;;;;;;;;;;;;;;20.26;61.67;100855.66;7391750;19;1492;-39
2024/03/14 10:43:24;;;;;;;;;;;;;;;20.23;61.85;100870.22;7392794;19;1618;-40
2024/03/14 10:45:55;;;;;;;;;;;;;;;20.29;61.88;100860.72;7392760;19;1439;-39
2024/03/14 10:48:25;;;;;;;;;;;;;;;20.26;61.81;100864.56;7392257;19;1589;-39
2024/03/14 10:50:56;;;;;;;;;;;;;;;20.26;61.77;100875.31;7390596;19;1584;-39
2024/03/14 10:53:25;;;;;;;;;;;;;;;20.31;61.95;100865.97;7388291;19;1870;-39
2024/03/14 10:55:55;;;;;;;;;;;;;;;20.27;62.04;100909.25;7391446;19;1559;-39
2024/03/14 10:58:25;;;;;;;;;;;;;;;20.36;61.75;100879.84;7391607;19;1631;-39
2024/03/14 11:00:57;;;;;;;;;;;;;;;20.49;61.40;100866.94;7390792;19;1401;-39
2024/03/14 11:03:26;;;;;;;;;;;;;;;20.67;60.97;100877.84;7389412;19;1477;-39
2024/03/14 11:05:58;;;;;;;;;;;;;;;20.81;60.79;100873.84;7391340;19;1461;-39
2024/03/14 11:08:27;;;;;;;;;;;;;;;20.87;60.52;100884.06;7391425;19;1552;-39
2024/03/14 11:10:59;;;;;;;;;;;;;;;20.84;60.48;100870.88;7390662;19;1567;-40
2024/03/14 11:13:32;;;;;;;;;;;;;;;20.89;60.43;100865.06;7388246;19;1841;-39
2024/03/14 11:16:05;;;;;;;;;;;;;;;20.85;60.54;100875.28;7390373;19;1630;-39
2024/03/14 11:18:40;;;;;;;;;;;;;;;20.90;60.54;100866.78;7390846;19;1156;-39
2024/03/14 11:21:10;;;;;;;;;;;;;;;20.96;60.28;100876.94;7389756;19;1227;-39
2024/03/14 11:23:40;;;;;;;;;;;;;;;20.97;60.28;100868.75;7391713;19;1064;-39
2024/03/14 11:26:14;;;;;;;;;;;;;;;20.98;60.23;100865.03;7389244;19;1862;-39
2024/03/14 11:28:44;;;;;;;;;;;;;;;20.97;60.23;100873.25;7389702;19;1868;-39
2024/03/14 11:31:18;;;;;;;;;;;;;;;20.97;60.27;100870.56;7387517;19;1985;-39
2024/03/14 11:33:47;;;;;;;;;;;;;;;20.99;60.46;100866.75;7387764;19;1865;-39
2024/03/14 11:36:15;;;;;;;;;;;;;;;20.95;60.47;100869.84;7389392;19;1218;-39
2024/03/14 11:38:44;;;;;;;;;;;;;;;20.92;60.31;100878.22;7389655;19;1226;-39
2024/03/14 11:41:13;;;;;;;;;;;;;;;20.92;60.55;100876.38;7389904;19;1665;-39
2024/03/14 11:43:44;;;;;;;;;;;;;;;20.95;60.35;100873.41;7389719;19;1420;-39
2024/03/14 11:46:14;;;;;;;;;;;;;;;20.94;60.18;100893.22;7389044;19;1576;-39
2024/03/14 11:48:45;;;;;;;;;;;;;;;20.97;59.96;100878.63;7388940;19;1492;-39
2024/03/14 11:51:18;;;;;;;;;;;;;;;20.87;60.23;100867.94;7389100;19;1541;-39
2024/03/14 11:53:47;;;;;;;;;;;;;;;20.94;59.95;100879.78;7389281;19;1894;-39
2024/03/14 11:56:15;;;;;;;;;;;;;;;20.90;60.04;100878.38;7389282;19;1496;-39
2024/03/14 11:58:44;;;;;;;;;;;;;;;20.98;59.99;100881.19;7389225;19;1092;-39
2024/03/14 12:01:14;;;;;;;;;;;;;;;21.00;59.70;100884.56;7389002;19;1537;-39
2024/03/14 12:03:42;;;;;;;;;;;;;;;21.04;59.55;100896.72;7389668;19;1568;-39
2024/03/14 12:06:17;;;;;;;;;;;;;;;21.04;59.56;100929.00;7386328;19;1505;-40
2024/03/14 12:08:47;;;;;;;;;;;;;;;21.10;59.25;100897.16;7389429;19;1524;-39
2024/03/14 12:11:18;;;;;;;;;;;;;;;21.11;59.51;100891.63;7388644;19;1167;-39
2024/03/14 12:13:52;;;;;;;;;;;;;;;21.12;59.46;100887.09;7388147;19;1865;-39
2024/03/14 12:16:22;;;;;;;;;;;;;;;21.11;59.23;100902.38;7389790;19;1958;-39
2024/03/14 12:18:51;;;;;;;;;;;;;;;20.93;59.77;100893.34;7388878;19;1452;-39
2024/03/14 12:21:22;;;;;;;;;;;;;;;20.83;60.10;100904.13;7388310;19;1524;-39
2024/03/14 12:23:54;;;;;;;;;;;;;;;20.86;59.92;100898.47;7388645;19;1699;-39
2024/03/14 12:26:24;;;;;;;;;;;;;;;20.97;59.52;100898.31;7388911;19;1691;-44
2024/03/14 12:28:54;;;;;;;;;;;;;;;21.00;59.57;100899.84;7389465;19;1000;-39
2024/03/14 12:31:23;;;;;;;;;;;;;;;21.02;59.49;100898.72;7388441;19;1883;-39
2024/03/14 12:33:52;;;;;;;;;;;;;;;21.00;59.39;100910.59;7387095;19;1861;-39
2024/03/14 12:36:25;;;;;;;;;;;;;;;20.99;59.45;100895.47;7391058;19;1525;-39
2024/03/14 12:38:55;;;;;;;;;;;;;;;21.05;59.10;100892.22;7392375;19;1655;-39
2024/03/14 12:41:24;;;;;;;;;;;;;;;21.10;59.13;100905.22;7391254;19;1548;-39
2024/03/14 12:43:53;;;;;;;;;;;;;;;21.09;59.12;100904.38;7390763;19;1289;-39
2024/03/14 12:46:23;;;;;;;;;;;;;;;21.08;59.13;100894.59;7389765;19;1592;-39
2024/03/14 12:48:51;;;;;;;;;;;;;;;21.13;58.96;100896.84;7390590;19;1578;-39
2024/03/14 12:51:23;;;;;;;;;;;;;;;21.14;58.83;100898.53;7388892;19;1226;-39
2024/03/14 12:53:58;;;;;;;;;;;;;;;21.23;58.62;100897.69;7389113;19;1844;-39
2024/03/14 12:56:27;;;;;;;;;;;;;;;21.20;58.86;100900.66;7388601;19;1051;-39
2024/03/14 12:58:56;;;;;;;;;;;;;;;21.18;58.72;100902.63;7388173;19;1468;-39
2024/03/14 13:01:29;;;;;;;;;;;;;;;21.09;59.15;100904.38;7387948;19;1640;-39
2024/03/14 13:04:00;;;;;;;;;;;;;;;21.10;59.07;100889.91;7387637;19;1238;-39